sensor_id;sensor_type;location;lat;lon;timestamp;temperature;humidity
29243;DHT22;21110;48.036;15.780;2023-03-21T00:01:55;23.90;38.80
29243;DHT22;21110;48.036;15.780;2023-03-21T00:04:22;23.90;38.80
29243;DHT22;21110;48.036;15.780;2023-03-21T00:06:49;23.90;38.90
29243;DHT22;21110;48.036;15.780;2023-03-21T00:09:15;23.80;38.80
29243;DHT22;21110;48.036;15.780;2023-03-21T00:11:40;23.80;38.80
29243;DHT22;21110;48.036;15.780;2023-03-21T00:14:06;23.80;38.80
29243;DHT22;21110;48.036;15.780;2023-03-21T00:16:33;23.80;39.00
29243;DHT22;21110;48.036;15.780;2023-03-21T00:19:00;23.80;38.90
29243;DHT22;21110;48.036;15.780;2023-03-21T00:21:28;23.80;38.80
29243;DHT22;21110;48.036;15.780;2023-03-21T00:23:57;23.80;38.90
29243;DHT22;21110;48.036;15.780;2023-03-21T00:26:23;23.90;39.00
29243;DHT22;21110;48.036;15.780;2023-03-21T00:28:48;23.90;39.00
29243;DHT22;21110;48.036;15.780;2023-03-21T00:31:15;23.90;38.90
29243;DHT22;21110;48.036;15.780;2023-03-21T00:33:40;23.90;39.00
29243;DHT22;21110;48.036;15.780;2023-03-21T00:36:07;23.90;39.10
29243;DHT22;21110;48.036;15.780;2023-03-21T00:38:34;23.90;39.10
29243;DHT22;21110;48.036;15.780;2023-03-21T00:41:04;23.90;39.00
29243;DHT22;21110;48.036;15.780;2023-03-21T00:43:30;24.00;39.30
29243;DHT22;21110;48.036;15.780;2023-03-21T00:45:56;24.10;39.00
29243;DHT22;21110;48.036;15.780;2023-03-21T00:48:23;24.00;39.10
29243;DHT22;21110;48.036;15.780;2023-03-21T00:50:53;24.00;38.90
29243;DHT22;21110;48.036;15.780;2023-03-21T00:53:20;24.00;39.00
29243;DHT22;21110;48.036;15.780;2023-03-21T00:55:46;23.90;39.10
29243;DHT22;21110;48.036;15.780;2023-03-21T00:58:11;23.90;39.20
29243;DHT22;21110;48.036;15.780;2023-03-21T01:00:37;23.90;39.20
29243;DHT22;21110;48.036;15.780;2023-03-21T01:03:09;23.90;39.30
29243;DHT22;21110;48.036;15.780;2023-03-21T01:05:46;23.80;39.20
29243;DHT22;21110;48.036;15.780;2023-03-21T01:08:36;23.90;39.30
29243;DHT22;21110;48.036;15.780;2023-03-21T01:11:06;23.80;39.20
29243;DHT22;21110;48.036;15.780;2023-03-21T01:13:32;23.80;39.30
29243;DHT22;21110;48.036;15.780;2023-03-21T01:15:58;23.80;39.20
29243;DHT22;21110;48.036;15.780;2023-03-21T01:18:26;23.80;39.30
29243;DHT22;21110;48.036;15.780;2023-03-21T01:20:57;23.80;39.20
29243;DHT22;21110;48.036;15.780;2023-03-21T01:23:23;23.80;39.30
29243;DHT22;21110;48.036;15.780;2023-03-21T01:25:51;23.70;39.30
29243;DHT22;21110;48.036;15.780;2023-03-21T01:28:17;23.80;39.50
29243;DHT22;21110;48.036;15.780;2023-03-21T01:30:48;23.70;39.50
29243;DHT22;21110;48.036;15.780;2023-03-21T01:33:14;23.70;39.40
29243;DHT22;21110;48.036;15.780;2023-03-21T01:35:40;23.70;39.60
29243;DHT22;21110;48.036;15.780;2023-03-21T01:38:07;23.70;39.60
29243;DHT22;21110;48.036;15.780;2023-03-21T01:40:35;23.70;39.60
29243;DHT22;21110;48.036;15.780;2023-03-21T01:43:02;23.70;39.60
29243;DHT22;21110;48.036;15.780;2023-03-21T01:46:07;23.70;39.60
29243;DHT22;21110;48.036;15.780;2023-03-21T01:48:40;23.60;39.70
29243;DHT22;21110;48.036;15.780;2023-03-21T01:51:08;23.60;39.80
29243;DHT22;21110;48.036;15.780;2023-03-21T01:53:35;23.60;39.80
29243;DHT22;21110;48.036;15.780;2023-03-21T01:56:07;23.60;39.90
29243;DHT22;21110;48.036;15.780;2023-03-21T01:58:35;23.60;39.90
29243;DHT22;21110;48.036;15.780;2023-03-21T02:01:02;23.60;39.90
29243;DHT22;21110;48.036;15.780;2023-03-21T02:03:29;23.60;39.90
29243;DHT22;21110;48.036;15.780;2023-03-21T02:06:06;23.60;39.90
29243;DHT22;21110;48.036;15.780;2023-03-21T02:08:34;23.60;39.90
29243;DHT22;21110;48.036;15.780;2023-03-21T02:10:59;23.50;39.80
29243;DHT22;21110;48.036;15.780;2023-03-21T02:13:25;23.60;39.90
29243;DHT22;21110;48.036;15.780;2023-03-21T02:16:04;23.60;39.90
29243;DHT22;21110;48.036;15.780;2023-03-21T02:18:36;23.50;39.80
29243;DHT22;21110;48.036;15.780;2023-03-21T02:21:30;23.50;39.80
29243;DHT22;21110;48.036;15.780;2023-03-21T02:40:35;23.50;40.10
29243;DHT22;21110;48.036;15.780;2023-03-21T02:43:08;23.50;40.20
29243;DHT22;21110;48.036;15.780;2023-03-21T02:45:52;23.50;40.20
29243;DHT22;21110;48.036;15.780;2023-03-21T02:48:23;23.50;40.20
29243;DHT22;21110;48.036;15.780;2023-03-21T02:50:54;23.50;40.20
29243;DHT22;21110;48.036;15.780;2023-03-21T02:53:24;23.50;40.30
29243;DHT22;21110;48.036;15.780;2023-03-21T02:55:51;23.50;40.40
29243;DHT22;21110;48.036;15.780;2023-03-21T02:58:21;23.50;40.50
29243;DHT22;21110;48.036;15.780;2023-03-21T03:00:49;23.50;40.50
29243;DHT22;21110;48.036;15.780;2023-03-21T03:03:15;23.40;40.50
29243;DHT22;21110;48.036;15.780;2023-03-21T03:05:46;23.40;40.40
29243;DHT22;21110;48.036;15.780;2023-03-21T03:18:53;23.40;40.50
29243;DHT22;21110;48.036;15.780;2023-03-21T03:21:29;23.40;40.50
29243;DHT22;21110;48.036;15.780;2023-03-21T03:24:06;23.40;40.70
29243;DHT22;21110;48.036;15.780;2023-03-21T03:26:47;23.40;40.60
29243;DHT22;21110;48.036;15.780;2023-03-21T03:29:16;23.40;40.60
29243;DHT22;21110;48.036;15.780;2023-03-21T03:31:50;23.30;40.60
29243;DHT22;21110;48.036;15.780;2023-03-21T03:34:22;23.40;40.70
29243;DHT22;21110;48.036;15.780;2023-03-21T03:36:54;23.30;40.70
29243;DHT22;21110;48.036;15.780;2023-03-21T03:39:26;23.40;40.60
29243;DHT22;21110;48.036;15.780;2023-03-21T03:42:13;23.30;40.80
29243;DHT22;21110;48.036;15.780;2023-03-21T03:44:40;23.30;40.80
29243;DHT22;21110;48.036;15.780;2023-03-21T03:47:10;23.30;40.90
29243;DHT22;21110;48.036;15.780;2023-03-21T03:49:51;23.30;41.10
29243;DHT22;21110;48.036;15.780;2023-03-21T03:52:27;23.30;41.00
29243;DHT22;21110;48.036;15.780;2023-03-21T03:54:54;23.30;40.90
29243;DHT22;21110;48.036;15.780;2023-03-21T03:57:20;23.30;41.10
29243;DHT22;21110;48.036;15.780;2023-03-21T03:59:46;23.30;41.10
29243;DHT22;21110;48.036;15.780;2023-03-21T04:02:12;23.30;41.10
29243;DHT22;21110;48.036;15.780;2023-03-21T04:04:38;23.30;41.20
29243;DHT22;21110;48.036;15.780;2023-03-21T04:07:04;23.20;41.00
29243;DHT22;21110;48.036;15.780;2023-03-21T04:09:30;23.20;41.10
29243;DHT22;21110;48.036;15.780;2023-03-21T04:11:57;23.20;41.20
29243;DHT22;21110;48.036;15.780;2023-03-21T04:14:23;23.20;41.10
29243;DHT22;21110;48.036;15.780;2023-03-21T04:16:49;23.10;41.10
29243;DHT22;21110;48.036;15.780;2023-03-21T04:19:14;23.20;41.20
29243;DHT22;21110;48.036;15.780;2023-03-21T04:21:42;23.20;41.30
29243;DHT22;21110;48.036;15.780;2023-03-21T04:24:08;23.10;41.30
29243;DHT22;21110;48.036;15.780;2023-03-21T04:26:34;23.10;41.30
29243;DHT22;21110;48.036;15.780;2023-03-21T04:29:01;23.10;41.30
29243;DHT22;21110;48.036;15.780;2023-03-21T04:31:29;23.10;41.40
29243;DHT22;21110;48.036;15.780;2023-03-21T04:34:00;23.10;41.40
29243;DHT22;21110;48.036;15.780;2023-03-21T04:36:27;23.00;41.40
29243;DHT22;21110;48.036;15.780;2023-03-21T04:38:56;23.10;41.50
29243;DHT22;21110;48.036;15.780;2023-03-21T04:41:26;23.00;41.50
29243;DHT22;21110;48.036;15.780;2023-03-21T04:43:52;23.00;41.40
29243;DHT22;21110;48.036;15.780;2023-03-21T04:46:18;23.00;41.50
29243;DHT22;21110;48.036;15.780;2023-03-21T04:48:43;23.00;41.60
29243;DHT22;21110;48.036;15.780;2023-03-21T04:51:09;23.00;41.40
29243;DHT22;21110;48.036;15.780;2023-03-21T04:53:35;23.00;41.50
29243;DHT22;21110;48.036;15.780;2023-03-21T04:56:02;23.00;41.50
29243;DHT22;21110;48.036;15.780;2023-03-21T04:58:28;23.10;41.60
29243;DHT22;21110;48.036;15.780;2023-03-21T05:00:54;23.10;41.60
29243;DHT22;21110;48.036;15.780;2023-03-21T05:03:22;23.00;41.60
29243;DHT22;21110;48.036;15.780;2023-03-21T05:05:48;23.00;41.60
29243;DHT22;21110;48.036;15.780;2023-03-21T05:08:15;23.00;41.70
29243;DHT22;21110;48.036;15.780;2023-03-21T05:10:41;23.10;41.50
29243;DHT22;21110;48.036;15.780;2023-03-21T05:13:06;22.90;40.00
29243;DHT22;21110;48.036;15.780;2023-03-21T05:15:32;22.90;39.60
29243;DHT22;21110;48.036;15.780;2023-03-21T05:17:58;22.80;39.00
29243;DHT22;21110;48.036;15.780;2023-03-21T05:20:25;22.80;38.50
29243;DHT22;21110;48.036;15.780;2023-03-21T05:22:50;22.80;38.40
29243;DHT22;21110;48.036;15.780;2023-03-21T05:25:17;22.70;38.20
29243;DHT22;21110;48.036;15.780;2023-03-21T05:28:00;22.70;38.10
29243;DHT22;21110;48.036;15.780;2023-03-21T05:30:27;22.50;37.70
29243;DHT22;21110;48.036;15.780;2023-03-21T05:32:52;22.40;37.70
29243;DHT22;21110;48.036;15.780;2023-03-21T05:35:18;22.40;38.10
29243;DHT22;21110;48.036;15.780;2023-03-21T05:37:44;22.10;38.70
29243;DHT22;21110;48.036;15.780;2023-03-21T05:40:10;22.50;39.50
29243;DHT22;21110;48.036;15.780;2023-03-21T05:42:35;22.50;39.40
29243;DHT22;21110;48.036;15.780;2023-03-21T05:45:01;22.40;39.40
29243;DHT22;21110;48.036;15.780;2023-03-21T05:47:27;22.40;39.50
29243;DHT22;21110;48.036;15.780;2023-03-21T05:49:52;22.30;39.60
29243;DHT22;21110;48.036;15.780;2023-03-21T05:52:18;22.30;39.70
29243;DHT22;21110;48.036;15.780;2023-03-21T05:54:44;22.30;39.70
29243;DHT22;21110;48.036;15.780;2023-03-21T05:57:10;22.30;39.80
29243;DHT22;21110;48.036;15.780;2023-03-21T05:59:35;22.30;39.80
29243;DHT22;21110;48.036;15.780;2023-03-21T06:02:01;22.30;39.90
29243;DHT22;21110;48.036;15.780;2023-03-21T06:04:27;22.30;39.90
29243;DHT22;21110;48.036;15.780;2023-03-21T06:06:52;22.30;39.90
29243;DHT22;21110;48.036;15.780;2023-03-21T06:09:19;22.20;40.00
29243;DHT22;21110;48.036;15.780;2023-03-21T06:11:48;22.20;40.00
29243;DHT22;21110;48.036;15.780;2023-03-21T06:14:14;22.20;40.00
29243;DHT22;21110;48.036;15.780;2023-03-21T06:16:40;22.20;40.00
29243;DHT22;21110;48.036;15.780;2023-03-21T06:19:05;22.20;40.10
29243;DHT22;21110;48.036;15.780;2023-03-21T06:21:31;22.20;40.10
29243;DHT22;21110;48.036;15.780;2023-03-21T06:23:56;22.20;40.30
29243;DHT22;21110;48.036;15.780;2023-03-21T06:26:22;22.10;40.10
29243;DHT22;21110;48.036;15.780;2023-03-21T06:28:49;22.10;40.10
29243;DHT22;21110;48.036;15.780;2023-03-21T06:31:15;22.20;40.20
29243;DHT22;21110;48.036;15.780;2023-03-21T06:33:41;22.10;40.20
29243;DHT22;21110;48.036;15.780;2023-03-21T06:36:07;22.10;40.20
29243;DHT22;21110;48.036;15.780;2023-03-21T06:38:33;22.20;40.30
29243;DHT22;21110;48.036;15.780;2023-03-21T06:41:03;22.10;40.20
29243;DHT22;21110;48.036;15.780;2023-03-21T06:43:29;22.10;40.30
29243;DHT22;21110;48.036;15.780;2023-03-21T06:45:56;22.10;40.30
29243;DHT22;21110;48.036;15.780;2023-03-21T06:48:21;22.10;40.30
29243;DHT22;21110;48.036;15.780;2023-03-21T06:50:50;22.10;40.30
29243;DHT22;21110;48.036;15.780;2023-03-21T06:53:18;22.10;40.40
29243;DHT22;21110;48.036;15.780;2023-03-21T06:55:49;22.00;40.30
29243;DHT22;21110;48.036;15.780;2023-03-21T06:58:15;22.00;40.30
29243;DHT22;21110;48.036;15.780;2023-03-21T07:00:41;22.00;40.30
29243;DHT22;21110;48.036;15.780;2023-03-21T07:03:07;22.00;41.00
29243;DHT22;21110;48.036;15.780;2023-03-21T07:05:35;22.00;40.30
29243;DHT22;21110;48.036;15.780;2023-03-21T07:08:00;22.00;40.40
29243;DHT22;21110;48.036;15.780;2023-03-21T07:10:26;22.00;40.40
29243;DHT22;21110;48.036;15.780;2023-03-21T07:12:52;22.00;40.40
29243;DHT22;21110;48.036;15.780;2023-03-21T07:15:17;22.00;40.40
29243;DHT22;21110;48.036;15.780;2023-03-21T07:17:43;22.00;40.50
29243;DHT22;21110;48.036;15.780;2023-03-21T07:20:09;22.00;40.50
29243;DHT22;21110;48.036;15.780;2023-03-21T07:22:37;22.00;40.50
29243;DHT22;21110;48.036;15.780;2023-03-21T07:25:03;21.90;40.50
29243;DHT22;21110;48.036;15.780;2023-03-21T07:27:29;21.90;40.50
29243;DHT22;21110;48.036;15.780;2023-03-21T07:29:55;22.00;40.60
29243;DHT22;21110;48.036;15.780;2023-03-21T07:32:21;21.90;40.50
29243;DHT22;21110;48.036;15.780;2023-03-21T07:34:47;21.90;40.50
29243;DHT22;21110;48.036;15.780;2023-03-21T07:37:12;21.90;40.50
29243;DHT22;21110;48.036;15.780;2023-03-21T07:39:38;21.90;40.50
29243;DHT22;21110;48.036;15.780;2023-03-21T07:42:04;21.90;40.60
29243;DHT22;21110;48.036;15.780;2023-03-21T07:44:30;21.90;40.60
29243;DHT22;21110;48.036;15.780;2023-03-21T07:46:57;21.90;40.60
29243;DHT22;21110;48.036;15.780;2023-03-21T07:49:23;21.90;40.60
29243;DHT22;21110;48.036;15.780;2023-03-21T07:51:49;21.90;40.70
29243;DHT22;21110;48.036;15.780;2023-03-21T07:54:14;21.90;40.70
29243;DHT22;21110;48.036;15.780;2023-03-21T07:56:43;21.90;40.70
29243;DHT22;21110;48.036;15.780;2023-03-21T07:59:09;21.80;40.60
29243;DHT22;21110;48.036;15.780;2023-03-21T08:01:34;21.80;40.60
29243;DHT22;21110;48.036;15.780;2023-03-21T08:04:00;21.90;40.70
29243;DHT22;21110;48.036;15.780;2023-03-21T08:06:29;21.80;40.60
29243;DHT22;21110;48.036;15.780;2023-03-21T08:08:57;21.80;40.70
29243;DHT22;21110;48.036;15.780;2023-03-21T08:11:23;21.80;40.70
29243;DHT22;21110;48.036;15.780;2023-03-21T08:13:49;21.80;40.70
29243;DHT22;21110;48.036;15.780;2023-03-21T08:16:16;21.80;40.70
29243;DHT22;21110;48.036;15.780;2023-03-21T08:18:42;21.80;40.80
29243;DHT22;21110;48.036;15.780;2023-03-21T08:21:08;21.80;40.80
29243;DHT22;21110;48.036;15.780;2023-03-21T08:23:34;21.80;40.80
29243;DHT22;21110;48.036;15.780;2023-03-21T08:26:00;21.70;40.70
29243;DHT22;21110;48.036;15.780;2023-03-21T08:28:26;21.70;40.70
29243;DHT22;21110;48.036;15.780;2023-03-21T08:30:52;21.80;40.80
29243;DHT22;21110;48.036;15.780;2023-03-21T08:33:18;21.80;40.80
29243;DHT22;21110;48.036;15.780;2023-03-21T08:35:44;21.80;40.80
29243;DHT22;21110;48.036;15.780;2023-03-21T08:38:10;21.80;40.90
29243;DHT22;21110;48.036;15.780;2023-03-21T08:40:36;21.70;40.80
29243;DHT22;21110;48.036;15.780;2023-03-21T08:43:02;21.70;40.80
29243;DHT22;21110;48.036;15.780;2023-03-21T08:45:28;21.70;40.80
29243;DHT22;21110;48.036;15.780;2023-03-21T08:47:54;21.70;40.80
29243;DHT22;21110;48.036;15.780;2023-03-21T08:50:22;21.70;40.80
29243;DHT22;21110;48.036;15.780;2023-03-21T08:52:49;21.70;40.90
29243;DHT22;21110;48.036;15.780;2023-03-21T08:55:16;21.70;40.90
29243;DHT22;21110;48.036;15.780;2023-03-21T08:57:43;21.70;40.90
29243;DHT22;21110;48.036;15.780;2023-03-21T09:00:11;21.70;40.90
29243;DHT22;21110;48.036;15.780;2023-03-21T09:02:45;21.70;40.90
29243;DHT22;21110;48.036;15.780;2023-03-21T09:05:12;21.70;40.90
29243;DHT22;21110;48.036;15.780;2023-03-21T09:07:39;21.70;41.00
29243;DHT22;21110;48.036;15.780;2023-03-21T09:10:08;21.60;40.90
29243;DHT22;21110;48.036;15.780;2023-03-21T09:12:35;21.60;40.90
29243;DHT22;21110;48.036;15.780;2023-03-21T09:15:01;21.70;41.00
29243;DHT22;21110;48.036;15.780;2023-03-21T09:17:28;21.60;41.00
29243;DHT22;21110;48.036;15.780;2023-03-21T09:19:54;21.70;41.00
29243;DHT22;21110;48.036;15.780;2023-03-21T09:22:20;21.60;41.00
29243;DHT22;21110;48.036;15.780;2023-03-21T09:24:48;21.70;41.10
29243;DHT22;21110;48.036;15.780;2023-03-21T09:27:14;21.60;41.00
29243;DHT22;21110;48.036;15.780;2023-03-21T09:29:42;21.60;41.60
29243;DHT22;21110;48.036;15.780;2023-03-21T09:32:09;21.60;41.00
29243;DHT22;21110;48.036;15.780;2023-03-21T09:34:37;21.60;41.10
29243;DHT22;21110;48.036;15.780;2023-03-21T09:37:06;21.60;41.00
29243;DHT22;21110;48.036;15.780;2023-03-21T09:39:35;21.60;41.10
29243;DHT22;21110;48.036;15.780;2023-03-21T09:47:23;21.60;41.10
29243;DHT22;21110;48.036;15.780;2023-03-21T09:50:00;21.60;41.10
29243;DHT22;21110;48.036;15.780;2023-03-21T09:52:48;21.60;41.20
29243;DHT22;21110;48.036;15.780;2023-03-21T09:55:29;21.50;41.10
29243;DHT22;21110;48.036;15.780;2023-03-21T10:00:43;21.50;41.10
29243;DHT22;21110;48.036;15.780;2023-03-21T10:03:25;21.60;41.20
29243;DHT22;21110;48.036;15.780;2023-03-21T10:05:53;21.50;41.70
29243;DHT22;21110;48.036;15.780;2023-03-21T10:08:45;21.50;41.20
29243;DHT22;21110;48.036;15.780;2023-03-21T10:11:18;21.50;41.20
29243;DHT22;21110;48.036;15.780;2023-03-21T10:13:56;21.50;41.20
29243;DHT22;21110;48.036;15.780;2023-03-21T10:16:34;21.50;41.20
29243;DHT22;21110;48.036;15.780;2023-03-21T10:19:03;21.50;41.20
29243;DHT22;21110;48.036;15.780;2023-03-21T10:21:32;21.50;41.20
29243;DHT22;21110;48.036;15.780;2023-03-21T10:23:59;21.50;41.20
29243;DHT22;21110;48.036;15.780;2023-03-21T10:26:26;21.50;41.20
29243;DHT22;21110;48.036;15.780;2023-03-21T10:28:58;21.50;41.30
29243;DHT22;21110;48.036;15.780;2023-03-21T10:31:25;21.50;41.30
29243;DHT22;21110;48.036;15.780;2023-03-21T10:33:56;21.50;41.30
29243;DHT22;21110;48.036;15.780;2023-03-21T10:36:26;21.50;41.30
29243;DHT22;21110;48.036;15.780;2023-03-21T10:38:57;21.50;41.90
29243;DHT22;21110;48.036;15.780;2023-03-21T10:41:24;21.50;41.40
29243;DHT22;21110;48.036;15.780;2023-03-21T10:44:15;21.50;41.40
29243;DHT22;21110;48.036;15.780;2023-03-21T10:46:54;21.40;41.30
29243;DHT22;21110;48.036;15.780;2023-03-21T10:49:20;21.50;41.40
29243;DHT22;21110;48.036;15.780;2023-03-21T10:51:50;21.40;41.30
29243;DHT22;21110;48.036;15.780;2023-03-21T10:54:19;21.40;41.30
29243;DHT22;21110;48.036;15.780;2023-03-21T10:57:15;21.40;41.30
29243;DHT22;21110;48.036;15.780;2023-03-21T10:59:57;21.40;41.40
29243;DHT22;21110;48.036;15.780;2023-03-21T11:04:52;21.40;41.40
29243;DHT22;21110;48.036;15.780;2023-03-21T11:07:19;21.40;41.40
29243;DHT22;21110;48.036;15.780;2023-03-21T11:09:48;21.50;41.50
29243;DHT22;21110;48.036;15.780;2023-03-21T11:12:17;21.40;41.40
29243;DHT22;21110;48.036;15.780;2023-03-21T11:14:48;21.40;41.40
29243;DHT22;21110;48.036;15.780;2023-03-21T11:17:27;21.40;41.40
29243;DHT22;21110;48.036;15.780;2023-03-21T11:19:56;21.40;41.50
29243;DHT22;21110;48.036;15.780;2023-03-21T11:22:28;21.40;41.50
29243;DHT22;21110;48.036;15.780;2023-03-21T11:25:03;21.40;41.50
29243;DHT22;21110;48.036;15.780;2023-03-21T11:27:31;21.40;41.50
29243;DHT22;21110;48.036;15.780;2023-03-21T11:29:58;21.40;41.50
29243;DHT22;21110;48.036;15.780;2023-03-21T11:37:38;21.40;41.60
29243;DHT22;21110;48.036;15.780;2023-03-21T11:42:53;21.40;41.60
29243;DHT22;21110;48.036;15.780;2023-03-21T11:45:21;21.40;41.60
29243;DHT22;21110;48.036;15.780;2023-03-21T11:47:48;21.30;41.60
29243;DHT22;21110;48.036;15.780;2023-03-21T11:55:30;21.40;41.60
29243;DHT22;21110;48.036;15.780;2023-03-21T11:58:19;21.30;41.60
29243;DHT22;21110;48.036;15.780;2023-03-21T12:01:10;21.30;41.60
29243;DHT22;21110;48.036;15.780;2023-03-21T12:20:15;21.30;41.70
29243;DHT22;21110;48.036;15.780;2023-03-21T12:30:55;21.30;41.80
29243;DHT22;21110;48.036;15.780;2023-03-21T12:39:11;21.30;42.30
29243;DHT22;21110;48.036;15.780;2023-03-21T12:44:29;21.30;41.90
29243;DHT22;21110;48.036;15.780;2023-03-21T12:47:11;21.20;41.90
29243;DHT22;21110;48.036;15.780;2023-03-21T12:49:42;21.30;42.00
29243;DHT22;21110;48.036;15.780;2023-03-21T12:52:11;21.20;41.90
29243;DHT22;21110;48.036;15.780;2023-03-21T13:02:33;21.20;42.00
29243;DHT22;21110;48.036;15.780;2023-03-21T13:07:56;21.20;42.00
29243;DHT22;21110;48.036;15.780;2023-03-21T13:10:23;21.20;42.00
29243;DHT22;21110;48.036;15.780;2023-03-21T13:18:12;21.20;42.10
29243;DHT22;21110;48.036;15.780;2023-03-21T13:20:49;21.20;42.20
29243;DHT22;21110;48.036;15.780;2023-03-21T13:23:17;21.20;42.10
29243;DHT22;21110;48.036;15.780;2023-03-21T13:25:52;21.20;42.20
29243;DHT22;21110;48.036;15.780;2023-03-21T13:28:27;21.20;42.20
29243;DHT22;21110;48.036;15.780;2023-03-21T13:31:20;21.20;42.20
29243;DHT22;21110;48.036;15.780;2023-03-21T13:33:50;21.20;42.20
29243;DHT22;21110;48.036;15.780;2023-03-21T13:36:28;21.20;42.30
29243;DHT22;21110;48.036;15.780;2023-03-21T13:39:03;21.20;42.30
29243;DHT22;21110;48.036;15.780;2023-03-21T13:41:34;21.20;42.30
29243;DHT22;21110;48.036;15.780;2023-03-21T13:49:01;21.20;42.40
29243;DHT22;21110;48.036;15.780;2023-03-21T13:56:28;21.10;42.40
29243;DHT22;21110;48.036;15.780;2023-03-21T13:59:02;21.20;42.40
29243;DHT22;21110;48.036;15.780;2023-03-21T14:01:41;21.20;42.50
29243;DHT22;21110;48.036;15.780;2023-03-21T14:04:25;21.10;42.40
29243;DHT22;21110;48.036;15.780;2023-03-21T14:06:56;21.10;42.40
29243;DHT22;21110;48.036;15.780;2023-03-21T14:12:02;21.20;43.10
29243;DHT22;21110;48.036;15.780;2023-03-21T14:14:36;21.10;42.50
29243;DHT22;21110;48.036;15.780;2023-03-21T14:17:11;21.10;42.50
29243;DHT22;21110;48.036;15.780;2023-03-21T14:19:36;21.10;42.50
29243;DHT22;21110;48.036;15.780;2023-03-21T14:22:03;21.10;42.50
29243;DHT22;21110;48.036;15.780;2023-03-21T14:24:28;21.10;42.50
29243;DHT22;21110;48.036;15.780;2023-03-21T14:26:54;21.10;42.60
29243;DHT22;21110;48.036;15.780;2023-03-21T14:29:30;21.10;42.60
29243;DHT22;21110;48.036;15.780;2023-03-21T14:31:58;21.10;42.70
29243;DHT22;21110;48.036;15.780;2023-03-21T14:34:30;21.10;42.70
29243;DHT22;21110;48.036;15.780;2023-03-21T14:36:56;21.10;42.60
29243;DHT22;21110;48.036;15.780;2023-03-21T14:39:29;21.00;42.60
29243;DHT22;21110;48.036;15.780;2023-03-21T14:42:02;21.00;42.60
29243;DHT22;21110;48.036;15.780;2023-03-21T14:44:47;21.00;42.60
29243;DHT22;21110;48.036;15.780;2023-03-21T14:47:18;21.10;42.70
29243;DHT22;21110;48.036;15.780;2023-03-21T14:49:44;21.00;42.80
29243;DHT22;21110;48.036;15.780;2023-03-21T14:52:13;21.00;42.70
29243;DHT22;21110;48.036;15.780;2023-03-21T14:54:43;21.00;42.70
29243;DHT22;21110;48.036;15.780;2023-03-21T14:57:12;21.00;42.70
29243;DHT22;21110;48.036;15.780;2023-03-21T14:59:39;21.00;42.60
29243;DHT22;21110;48.036;15.780;2023-03-21T15:02:27;21.00;42.60
29243;DHT22;21110;48.036;15.780;2023-03-21T15:04:56;21.00;42.60
29243;DHT22;21110;48.036;15.780;2023-03-21T15:07:28;21.00;42.70
29243;DHT22;21110;48.036;15.780;2023-03-21T15:09:59;21.00;42.60
29243;DHT22;21110;48.036;15.780;2023-03-21T15:12:28;21.00;42.60
29243;DHT22;21110;48.036;15.780;2023-03-21T15:14:54;21.00;42.70
29243;DHT22;21110;48.036;15.780;2023-03-21T15:17:21;21.00;42.60
29243;DHT22;21110;48.036;15.780;2023-03-21T15:19:47;21.00;42.70
29243;DHT22;21110;48.036;15.780;2023-03-21T15:22:38;21.00;42.70
29243;DHT22;21110;48.036;15.780;2023-03-21T15:25:07;21.00;42.70
29243;DHT22;21110;48.036;15.780;2023-03-21T15:27:39;21.00;42.70
29243;DHT22;21110;48.036;15.780;2023-03-21T15:30:06;20.90;42.70
29243;DHT22;21110;48.036;15.780;2023-03-21T15:32:35;20.90;42.60
29243;DHT22;21110;48.036;15.780;2023-03-21T15:35:16;20.90;42.60
29243;DHT22;21110;48.036;15.780;2023-03-21T15:37:52;20.90;42.60
29243;DHT22;21110;48.036;15.780;2023-03-21T15:40:21;20.90;42.70
29243;DHT22;21110;48.036;15.780;2023-03-21T15:42:47;20.90;42.70
29243;DHT22;21110;48.036;15.780;2023-03-21T15:45:24;20.90;43.30
29243;DHT22;21110;48.036;15.780;2023-03-21T15:47:58;20.90;42.70
29243;DHT22;21110;48.036;15.780;2023-03-21T15:53:00;20.90;42.70
29243;DHT22;21110;48.036;15.780;2023-03-21T15:55:47;20.90;42.70
29243;DHT22;21110;48.036;15.780;2023-03-21T15:58:19;20.90;42.70
29243;DHT22;21110;48.036;15.780;2023-03-21T16:00:56;20.90;42.70
29243;DHT22;21110;48.036;15.780;2023-03-21T16:03:35;20.90;42.70
29243;DHT22;21110;48.036;15.780;2023-03-21T16:08:52;20.90;42.70
29243;DHT22;21110;48.036;15.780;2023-03-21T16:11:27;20.90;42.80
29243;DHT22;21110;48.036;15.780;2023-03-21T16:13:54;20.90;42.80
29243;DHT22;21110;48.036;15.780;2023-03-21T16:16:23;20.90;42.80
29243;DHT22;21110;48.036;15.780;2023-03-21T16:18:49;20.90;42.80
29243;DHT22;21110;48.036;15.780;2023-03-21T16:21:17;20.80;42.70
29243;DHT22;21110;48.036;15.780;2023-03-21T16:23:45;20.80;42.80
29243;DHT22;21110;48.036;15.780;2023-03-21T16:26:16;20.80;42.80
29243;DHT22;21110;48.036;15.780;2023-03-21T16:28:42;20.80;42.80
29243;DHT22;21110;48.036;15.780;2023-03-21T16:31:21;20.80;42.80
29243;DHT22;21110;48.036;15.780;2023-03-21T16:33:47;20.80;42.80
29243;DHT22;21110;48.036;15.780;2023-03-21T16:36:21;20.80;42.90
29243;DHT22;21110;48.036;15.780;2023-03-21T16:38:48;20.80;42.80
29243;DHT22;21110;48.036;15.780;2023-03-21T16:41:15;20.80;42.80
29243;DHT22;21110;48.036;15.780;2023-03-21T16:43:41;20.80;42.80
29243;DHT22;21110;48.036;15.780;2023-03-21T16:46:19;20.80;42.90
29243;DHT22;21110;48.036;15.780;2023-03-21T16:48:49;20.80;42.90
29243;DHT22;21110;48.036;15.780;2023-03-21T16:51:23;20.80;42.90
29243;DHT22;21110;48.036;15.780;2023-03-21T16:53:52;20.80;42.90
29243;DHT22;21110;48.036;15.780;2023-03-21T16:56:38;20.80;42.90
29243;DHT22;21110;48.036;15.780;2023-03-21T16:59:05;20.80;42.90
29243;DHT22;21110;48.036;15.780;2023-03-21T17:01:32;20.70;42.90
29243;DHT22;21110;48.036;15.780;2023-03-21T17:04:00;20.70;42.90
29243;DHT22;21110;48.036;15.780;2023-03-21T17:06:28;20.70;42.90
29243;DHT22;21110;48.036;15.780;2023-03-21T17:08:55;20.70;42.90
29243;DHT22;21110;48.036;15.780;2023-03-21T17:11:25;20.70;42.90
29243;DHT22;21110;48.036;15.780;2023-03-21T17:13:53;20.70;42.90
29243;DHT22;21110;48.036;15.780;2023-03-21T17:16:21;20.70;42.90
29243;DHT22;21110;48.036;15.780;2023-03-21T17:18:48;20.70;42.90
29243;DHT22;21110;48.036;15.780;2023-03-21T17:21:19;20.70;42.90
29243;DHT22;21110;48.036;15.780;2023-03-21T17:23:46;20.70;42.90
29243;DHT22;21110;48.036;15.780;2023-03-21T17:26:22;20.70;42.90
29243;DHT22;21110;48.036;15.780;2023-03-21T17:28:48;20.70;42.90